首页
METAR-TAF:

METAR-TAF

机场 :

奥尔巴尼, 紐約州, 美国

纬度: 42-44-53N, 经度: 073-48-06W, 海拔: 87米

当前天气观测

该预报发布于36分钟前的00:51 UTC
风速3节,风向
温度 22°C
湿度 60%
气压 1015 hPa
能見度: 16.1公里
少量云层高于18000英尺
多云层高于25000英尺

METAR: KALB 180051Z 19003KT 10SM FEW180 BKN250 22/14 A2997 RMK AO2 SLP148 T02170139

时间: 21:27 (01:27 UTC)

预报

该预报发布于2小时和6分钟前的23:21 UTC
预报有效从18日的 00点(UTC)到 18日的 24点(UTC)
风速3节,风向
能見度: 10公里
少量云层高于4000英尺
散云层高于25000英尺
从 18日的 0500点(UTC)
风速3节,风向多变
能見度: 10公里
多云层高于4000英尺
几率 30%
从 18日的 14点(UTC)到 18日的 18点(UTC)
能見度: 9.7公里
多云层高于3000英尺
阴天层高于5000英尺
小阵雨, 轻雾

TAF: KALB 172321Z 1800/1824 17003KT P6SM FEW040 SCT250 FM180500 VRB03KT P6SM BKN040 PROB30 1814/1818 6SM -SHRA BR BKN030 OVC050

超过4000个机场的气象观测和天气预报(METAR&TAF报告)。

可查询的气象台以黄色和红色小点在地图上表示。

将鼠标移到小点上方,可查看气象台名称。

然后点击查看天气观测和预报。

如需切换地图:点击带黑十字的绿色按钮放大地图;点击带横线的绿色按钮缩小地图;或者点击绿色箭头查看邻近地区的地图。


METAR-TAF: